Time;durP1;ratioP1;P1;durP2;ratioP2;P2;SDS_P1;SDS_P2;PMS_P1;PMS_P2;Temp;Humidity;BMP_temperature;BMP_pressure;BME280_temperature;BME280_humidity;BME280_pressure;Samples;Min_cycle;Max_cycle;Signal;HPM_P1;HPM_P2
2021/10/05 00:00:42;;;;;;;28.00;21.85;;;11.40;99.90;;;;;;5039129;28;20036;-64
2021/10/05 00:03:08;;;;;;;34.35;24.10;;;11.40;99.90;;;;;;5039731;28;20470;-64
2021/10/05 00:05:33;;;;;;;30.98;22.85;;;11.40;99.90;;;;;;5039480;28;20025;-64
2021/10/05 00:07:59;;;;;;;29.50;22.02;;;11.30;99.90;;;;;;5034571;28;20419;-64
2021/10/05 00:10:25;;;;;;;29.55;22.63;;;11.40;99.90;;;;;;5030310;28;20025;-64
2021/10/05 00:12:52;;;;;;;28.40;21.60;;;11.30;99.90;;;;;;5030977;28;20022;-64
2021/10/05 00:15:18;;;;;;;32.10;24.77;;;11.30;99.90;;;;;;5031086;28;20106;-65
2021/10/05 00:17:44;;;;;;;32.10;24.65;;;11.30;99.90;;;;;;5035988;28;20387;-64
2021/10/05 00:20:12;;;;;;;31.20;23.85;;;11.30;99.90;;;;;;5064690;28;20036;-64
2021/10/05 00:22:38;;;;;;;31.02;23.65;;;11.30;99.90;;;;;;5056534;28;20470;-64
2021/10/05 00:25:05;;;;;;;34.35;24.17;;;11.30;99.90;;;;;;5050992;28;20061;-65
2021/10/05 00:27:30;;;;;;;36.83;23.95;;;11.30;99.90;;;;;;5049766;28;20033;-64
2021/10/05 00:29:56;;;;;;;37.97;25.15;;;11.30;99.90;;;;;;5049948;28;20035;-65
2021/10/05 00:32:22;;;;;;;38.47;27.50;;;11.30;99.90;;;;;;5050347;28;20059;-65
2021/10/05 00:34:47;;;;;;;34.15;25.25;;;11.30;99.90;;;;;;5050756;28;20461;-65
2021/10/05 00:37:13;;;;;;;36.08;25.65;;;11.40;99.90;;;;;;5038316;28;20381;-65
2021/10/05 00:39:39;;;;;;;38.30;26.38;;;11.40;99.90;;;;;;5053571;28;20090;-64
2021/10/05 00:42:04;;;;;;;40.53;26.42;;;11.40;99.90;;;;;;5054315;28;20025;-64
2021/10/05 00:44:38;;;;;;;33.75;24.85;;;11.40;99.90;;;;;;5051529;28;20032;-64
2021/10/05 00:47:10;;;;;;;40.45;27.08;;;11.40;99.90;;;;;;5016618;28;20069;-64
2021/10/05 00:49:37;;;;;;;41.75;27.98;;;11.40;99.90;;;;;;5033190;28;20382;-64
2021/10/05 00:52:04;;;;;;;38.60;27.02;;;11.40;99.90;;;;;;5033987;28;20025;-65
2021/10/05 00:54:31;;;;;;;35.60;25.45;;;11.40;99.90;;;;;;5042567;28;20111;-65
2021/10/05 00:56:58;;;;;;;40.15;26.55;;;11.40;99.90;;;;;;5052891;28;20033;-64
2021/10/05 00:59:23;;;;;;;41.92;27.88;;;11.40;99.90;;;;;;5053298;28;20064;-64
2021/10/05 01:01:50;;;;;;;41.85;26.98;;;11.40;99.90;;;;;;5052651;28;20060;-65
2021/10/05 01:04:16;;;;;;;44.95;28.20;;;11.30;99.90;;;;;;5053700;28;20514;-65
2021/10/05 01:06:56;;;;;;;39.22;27.23;;;11.40;99.90;;;;;;5052862;28;20088;-65
2021/10/05 01:09:22;;;;;;;49.17;29.20;;;11.30;99.90;;;;;;5053240;28;20033;-65
2021/10/05 01:11:48;;;;;;;47.25;30.20;;;11.30;99.90;;;;;;5052857;28;20029;-65
2021/10/05 01:14:14;;;;;;;46.42;30.00;;;11.40;99.90;;;;;;5053664;28;20029;-65
2021/10/05 01:16:40;;;;;;;44.17;28.63;;;11.40;99.90;;;;;;5052596;28;20029;-65
2021/10/05 01:19:06;;;;;;;47.47;31.30;;;11.40;99.90;;;;;;5057848;28;20031;-65
2021/10/05 01:21:32;;;;;;;41.42;28.83;;;11.50;99.90;;;;;;5072854;28;20024;-65
2021/10/05 01:24:05;;;;;;;45.40;31.25;;;11.50;99.90;;;;;;5019034;28;20029;-65
2021/10/05 01:26:32;;;;;;;45.15;29.10;;;11.40;99.90;;;;;;5043605;28;20109;-65
2021/10/05 01:29:02;;;;;;;46.50;31.35;;;11.40;99.90;;;;;;5036114;28;20398;-64
2021/10/05 01:31:28;;;;;;;49.95;31.77;;;11.40;99.90;;;;;;5033468;28;20443;-65
2021/10/05 01:33:54;;;;;;;51.63;31.60;;;11.40;99.90;;;;;;5033310;28;20045;-64
2021/10/05 01:36:19;;;;;;;48.00;30.10;;;11.30;99.90;;;;;;5033073;28;20045;-64
2021/10/05 01:38:45;;;;;;;53.63;30.95;;;11.30;99.90;;;;;;5033569;28;20256;-64
2021/10/05 01:41:11;;;;;;;54.88;31.15;;;11.30;99.90;;;;;;5033378;28;20443;-65
2021/10/05 01:43:36;;;;;;;56.72;30.63;;;11.20;99.90;;;;;;5032088;28;20025;-65
2021/10/05 01:46:04;;;;;;;56.63;33.28;;;11.20;99.90;;;;;;5032197;28;20033;-64
2021/10/05 01:48:29;;;;;;;58.85;33.42;;;11.20;99.90;;;;;;5032290;28;20466;-64
2021/10/05 01:50:55;;;;;;;49.97;31.65;;;11.20;99.90;;;;;;5032956;28;20054;-66
2021/10/05 01:53:20;;;;;;;51.70;30.85;;;11.30;99.90;;;;;;5033051;28;20025;-65
2021/10/05 01:55:46;;;;;;;53.55;31.55;;;11.30;99.90;;;;;;5036218;28;20029;-66
2021/10/05 01:58:11;;;;;;;53.05;30.75;;;11.20;99.90;;;;;;5044521;28;20036;-66
2021/10/05 02:00:37;;;;;;;60.88;33.83;;;11.20;99.90;;;;;;5031778;28;20036;-64
2021/10/05 02:03:03;;;;;;;55.58;32.08;;;11.20;99.90;;;;;;5032825;28;20025;-65
2021/10/05 02:05:29;;;;;;;51.40;29.17;;;11.20;99.90;;;;;;5039386;28;20036;-64
2021/10/05 02:07:54;;;;;;;57.75;31.00;;;11.20;99.90;;;;;;5050234;28;20406;-66
2021/10/05 02:10:20;;;;;;;59.67;32.20;;;11.20;99.90;;;;;;5052596;28;20036;-66
2021/10/05 02:12:45;;;;;;;55.22;32.58;;;11.20;99.90;;;;;;5049807;28;20029;-66
2021/10/05 02:15:11;;;;;;;66.57;36.35;;;11.20;99.90;;;;;;5051757;28;20029;-66
2021/10/05 02:17:37;;;;;;;67.13;35.83;;;11.20;99.90;;;;;;5042773;28;20038;-66
2021/10/05 02:20:04;;;;;;;58.75;33.55;;;11.20;99.90;;;;;;5051341;28;20450;-66
2021/10/05 02:22:29;;;;;;;60.03;34.45;;;11.20;99.90;;;;;;5031385;28;20033;-66
2021/10/05 02:24:56;;;;;;;63.78;33.53;;;11.20;99.90;;;;;;5032356;28;20037;-65
2021/10/05 02:27:22;;;;;;;59.45;33.90;;;11.10;99.90;;;;;;5033125;28;20116;-66
2021/10/05 02:29:47;;;;;;;55.08;33.47;;;11.20;99.90;;;;;;5031682;28;20100;-66
2021/10/05 02:32:14;;;;;;;55.35;32.80;;;11.20;99.90;;;;;;5032493;28;20068;-66
2021/10/05 02:34:41;;;;;;;54.45;32.92;;;11.20;99.90;;;;;;5045230;28;20037;-66
2021/10/05 02:37:07;;;;;;;52.38;31.85;;;11.20;99.90;;;;;;5048402;28;20072;-66
2021/10/05 02:39:34;;;;;;;53.88;31.08;;;11.20;99.90;;;;;;5031469;28;20103;-66
2021/10/05 02:42:00;;;;;;;56.55;32.65;;;11.20;99.90;;;;;;5049284;28;20424;-66
2021/10/05 02:44:25;;;;;;;62.80;33.25;;;11.20;99.90;;;;;;5051341;28;20025;-66
2021/10/05 02:46:51;;;;;;;58.30;32.97;;;11.10;99.90;;;;;;5051078;28;20128;-66
2021/10/05 02:49:17;;;;;;;60.03;33.28;;;11.10;99.90;;;;;;5051991;28;20032;-66
2021/10/05 02:51:43;;;;;;;63.80;34.97;;;11.10;99.90;;;;;;5048960;28;20021;-66
2021/10/05 02:54:09;;;;;;;60.20;34.83;;;11.10;99.90;;;;;;5031568;28;20034;-66
2021/10/05 02:56:35;;;;;;;54.40;31.77;;;11.10;99.90;;;;;;5048264;28;20041;-66
2021/10/05 02:59:00;;;;;;;56.88;33.10;;;11.20;99.90;;;;;;5051306;28;20029;-66
2021/10/05 03:01:26;;;;;;;61.17;34.97;;;11.20;99.90;;;;;;5033361;28;20489;-66
2021/10/05 03:03:52;;;;;;;61.35;32.78;;;11.10;99.90;;;;;;5050868;28;20060;-66
2021/10/05 03:06:18;;;;;;;59.63;31.70;;;11.10;99.90;;;;;;5051170;28;20053;-66
2021/10/05 03:08:43;;;;;;;60.00;31.77;;;11.20;99.90;;;;;;5049666;28;20028;-66
2021/10/05 03:11:09;;;;;;;61.00;32.63;;;11.10;99.90;;;;;;5051202;28;20021;-66
2021/10/05 03:13:36;;;;;;;64.32;33.63;;;11.10;99.90;;;;;;5050013;28;20025;-65
2021/10/05 03:16:03;;;;;;;60.08;32.85;;;11.10;99.90;;;;;;5050327;28;20167;-66
2021/10/05 03:18:29;;;;;;;59.65;30.23;;;11.10;99.90;;;;;;5049723;28;20040;-66
2021/10/05 03:20:55;;;;;;;70.40;33.60;;;11.10;99.90;;;;;;5070285;28;20066;-66
2021/10/05 03:23:21;;;;;;;64.47;31.90;;;11.10;99.90;;;;;;5053384;28;20112;-66
2021/10/05 03:25:46;;;;;;;60.28;31.73;;;11.10;99.90;;;;;;5043099;28;20046;-66
2021/10/05 03:28:12;;;;;;;59.20;29.95;;;11.10;99.90;;;;;;5043935;28;20029;-66
2021/10/05 03:30:38;;;;;;;44.78;25.95;;;11.10;99.90;;;;;;5050532;28;20205;-65
2021/10/05 03:33:04;;;;;;;44.60;26.45;;;11.10;99.90;;;;;;5051023;28;20032;-66
2021/10/05 03:35:30;;;;;;;47.83;27.00;;;11.10;99.90;;;;;;5041379;28;20040;-66
2021/10/05 03:37:55;;;;;;;48.28;26.92;;;11.10;99.90;;;;;;5039462;28;20045;-66
2021/10/05 03:40:21;;;;;;;49.70;28.23;;;11.10;99.90;;;;;;5050889;28;20025;-66
2021/10/05 03:42:47;;;;;;;53.17;28.42;;;11.10;99.90;;;;;;5050291;28;20132;-66
2021/10/05 03:45:12;;;;;;;52.45;29.33;;;11.10;99.90;;;;;;5050756;28;20062;-66
2021/10/05 03:47:38;;;;;;;58.05;30.20;;;11.10;99.90;;;;;;5044235;28;20051;-66
2021/10/05 03:50:06;;;;;;;55.20;29.95;;;11.10;99.90;;;;;;5036940;28;20029;-65
2021/10/05 03:52:32;;;;;;;55.83;27.63;;;11.10;99.90;;;;;;5050063;28;20033;-66
2021/10/05 03:54:58;;;;;;;54.17;29.92;;;11.10;99.90;;;;;;5050465;28;20033;-66
2021/10/05 03:57:23;;;;;;;59.58;30.13;;;11.10;99.90;;;;;;5049392;28;20083;-66
2021/10/05 03:59:49;;;;;;;63.30;30.83;;;11.10;99.90;;;;;;5050529;28;20027;-66
2021/10/05 04:02:14;;;;;;;59.95;29.13;;;11.10;99.90;;;;;;5044659;28;20033;-66
2021/10/05 04:04:40;;;;;;;60.28;29.70;;;11.10;99.90;;;;;;5050399;28;20025;-65
2021/10/05 04:07:06;;;;;;;53.17;29.42;;;11.10;99.90;;;;;;5039996;28;20451;-66
2021/10/05 04:09:32;;;;;;;54.15;27.25;;;11.10;99.90;;;;;;5053681;28;20067;-66
2021/10/05 04:11:58;;;;;;;50.55;27.33;;;11.10;99.90;;;;;;5054692;28;20465;-66
2021/10/05 04:14:23;;;;;;;57.58;29.90;;;11.10;99.90;;;;;;5052701;28;20029;-66
2021/10/05 04:16:49;;;;;;;58.63;30.05;;;11.10;99.90;;;;;;5034087;28;20034;-66
2021/10/05 04:19:15;;;;;;;53.58;27.42;;;11.10;99.90;;;;;;5058979;28;20031;-66
2021/10/05 04:21:41;;;;;;;51.67;27.02;;;11.10;99.90;;;;;;5057510;28;20025;-66
2021/10/05 04:24:07;;;;;;;50.83;25.45;;;11.10;99.90;;;;;;5054478;28;20040;-66
2021/10/05 04:26:33;;;;;;;54.35;27.17;;;11.00;99.90;;;;;;5053673;28;20024;-66
2021/10/05 04:28:58;;;;;;;51.92;24.75;;;11.10;99.90;;;;;;5047617;28;20538;-66
2021/10/05 04:31:24;;;;;;;52.30;26.27;;;11.10;99.90;;;;;;5053518;28;20106;-66
2021/10/05 04:33:50;;;;;;;45.92;25.15;;;11.00;99.90;;;;;;5034021;28;20097;-66
2021/10/05 04:36:15;;;;;;;48.80;25.60;;;11.10;99.90;;;;;;5035333;28;20099;-66
2021/10/05 04:38:41;;;;;;;45.60;23.85;;;11.10;99.90;;;;;;5039631;28;20375;-66
2021/10/05 04:41:06;;;;;;;46.78;24.60;;;11.10;99.90;;;;;;5037508;28;20037;-66
2021/10/05 04:43:32;;;;;;;49.10;27.05;;;11.10;99.90;;;;;;5033598;28;20095;-66
2021/10/05 04:45:58;;;;;;;50.50;25.60;;;11.10;99.90;;;;;;5034232;28;20029;-66
2021/10/05 04:48:23;;;;;;;45.70;24.35;;;11.10;99.90;;;;;;5033902;28;20036;-66
2021/10/05 04:50:49;;;;;;;45.25;23.92;;;11.10;99.90;;;;;;5033576;28;20095;-66
2021/10/05 04:53:15;;;;;;;48.95;25.48;;;11.10;99.90;;;;;;5034011;28;20030;-66
2021/10/05 04:55:44;;;;;;;48.22;25.80;;;11.10;99.90;;;;;;5033129;28;20144;-66
2021/10/05 04:58:13;;;;;;;47.83;24.17;;;11.10;99.90;;;;;;5042885;28;20025;-66
2021/10/05 05:00:38;;;;;;;42.85;22.13;;;11.10;99.90;;;;;;5053124;28;20079;-66
2021/10/05 05:03:04;;;;;;;43.95;23.70;;;11.10;99.90;;;;;;5053882;28;20486;-66
2021/10/05 05:05:30;;;;;;;43.42;22.10;;;11.10;99.90;;;;;;5038479;28;20034;-66
2021/10/05 05:07:58;;;;;;;40.30;22.13;;;11.10;99.90;;;;;;5046712;28;20057;-66
2021/10/05 05:10:23;;;;;;;41.35;22.58;;;11.10;99.90;;;;;;5053377;28;20033;-67
2021/10/05 05:12:49;;;;;;;40.28;21.90;;;11.10;99.90;;;;;;5049586;28;20031;-66
2021/10/05 05:15:15;;;;;;;41.08;21.92;;;11.00;99.90;;;;;;5033400;28;20097;-66
2021/10/05 05:17:41;;;;;;;39.83;21.40;;;11.10;99.90;;;;;;5032689;28;20182;-66
2021/10/05 05:20:07;;;;;;;41.90;23.20;;;11.00;99.90;;;;;;5054177;28;20041;-65
2021/10/05 05:22:32;;;;;;;39.08;20.90;;;11.00;99.90;;;;;;5053250;28;20029;-66
2021/10/05 05:24:58;;;;;;;42.63;23.27;;;11.00;99.90;;;;;;5051812;28;20040;-65
2021/10/05 05:27:24;;;;;;;40.83;21.58;;;11.00;99.90;;;;;;5053061;28;20029;-66
2021/10/05 05:29:51;;;;;;;39.00;21.95;;;11.00;99.90;;;;;;5052741;28;20477;-66
2021/10/05 05:32:17;;;;;;;38.17;20.45;;;11.00;99.90;;;;;;5053545;28;20061;-66
2021/10/05 05:34:42;;;;;;;40.65;20.77;;;10.90;99.90;;;;;;5043124;28;20033;-65
2021/10/05 05:37:09;;;;;;;43.10;21.33;;;10.90;99.90;;;;;;5034836;28;20041;-65
2021/10/05 05:39:39;;;;;;;43.25;21.58;;;11.00;99.90;;;;;;5052035;28;20032;-67
2021/10/05 05:42:08;;;;;;;;;;;10.90;99.90;;;;;;5052977;28;20406;-70
2021/10/05 05:44:35;;;;;;;44.83;21.52;;;11.00;99.90;;;;;;5052579;28;19991;-69
2021/10/05 05:47:00;;;;;;;40.45;20.73;;;10.90;99.90;;;;;;5052397;28;20029;-68
2021/10/05 05:49:26;;;;;;;39.85;20.08;;;11.00;99.90;;;;;;5052913;28;20035;-69
2021/10/05 05:51:52;;;;;;;47.70;23.33;;;11.00;99.90;;;;;;5052374;28;20132;-68
2021/10/05 05:54:17;;;;;;;42.42;22.15;;;11.00;99.90;;;;;;5050940;28;20470;-68
2021/10/05 05:56:43;;;;;;;40.85;21.38;;;11.00;99.90;;;;;;5032113;28;20475;-69
2021/10/05 05:59:09;;;;;;;44.90;22.48;;;11.00;99.90;;;;;;5033092;28;20026;-69
2021/10/05 06:01:35;;;;;;;41.25;21.52;;;11.10;99.90;;;;;;5036530;28;20056;-69
2021/10/05 06:04:01;;;;;;;45.10;22.48;;;11.10;99.90;;;;;;5052337;28;20469;-69
2021/10/05 06:06:30;;;;;;;41.45;21.38;;;11.10;99.90;;;;;;5052191;28;20432;-70
2021/10/05 06:09:00;;;;;;;41.75;21.90;;;11.10;99.90;;;;;;5035474;28;20025;-69
2021/10/05 06:11:29;;;;;;;43.83;20.85;;;11.10;99.90;;;;;;5032584;28;20383;-72
2021/10/05 06:13:54;;;;;;;39.17;20.95;;;11.10;99.90;;;;;;5031804;28;20033;-71
2021/10/05 06:16:20;;;;;;;37.00;19.83;;;11.10;99.90;;;;;;5045656;28;20044;-69
2021/10/05 06:18:46;;;;;;;43.22;23.33;;;11.10;99.90;;;;;;5040189;28;20521;-71
2021/10/05 06:21:12;;;;;;;38.67;20.60;;;11.10;99.90;;;;;;5047947;28;20032;-69
2021/10/05 06:23:38;;;;;;;37.05;18.40;;;11.10;99.90;;;;;;5046056;28;20021;-70
2021/10/05 06:26:04;;;;;;;39.85;19.27;;;11.10;99.90;;;;;;5040479;28;20432;-70
2021/10/05 06:28:30;;;;;;;38.92;19.60;;;11.20;99.90;;;;;;5032517;28;20108;-71
2021/10/05 06:30:56;;;;;;;36.55;19.17;;;11.20;99.90;;;;;;5050573;28;20609;-71
2021/10/05 06:33:21;;;;;;;36.47;19.48;;;11.20;99.90;;;;;;5045429;28;20021;-69
2021/10/05 06:35:47;;;;;;;35.80;18.73;;;11.20;99.90;;;;;;5043370;28;20417;-69
2021/10/05 06:38:13;;;;;;;39.78;18.98;;;11.30;99.90;;;;;;5041136;28;20025;-70
2021/10/05 06:40:40;;;;;;;30.13;17.27;;;11.30;99.90;;;;;;5051741;28;20033;-70
2021/10/05 06:43:06;;;;;;;28.67;16.77;;;11.40;99.90;;;;;;5051404;28;20177;-71
2021/10/05 06:45:32;;;;;;;29.52;17.13;;;11.40;99.90;;;;;;5049773;28;20036;-70
2021/10/05 06:47:58;;;;;;;27.83;16.92;;;11.40;99.90;;;;;;5047880;28;20059;-71
2021/10/05 06:50:25;;;;;;;24.70;14.63;;;11.50;99.90;;;;;;5041249;28;20022;-71
2021/10/05 06:52:51;;;;;;;26.35;16.25;;;11.50;99.90;;;;;;5044176;28;20032;-70
2021/10/05 06:55:17;;;;;;;27.13;15.57;;;11.40;99.90;;;;;;5051870;28;20041;-70
2021/10/05 06:57:43;;;;;;;26.30;15.43;;;11.40;99.90;;;;;;5050495;28;20036;-70
2021/10/05 07:00:15;;;;;;;24.05;14.55;;;11.40;99.90;;;;;;5047240;28;20033;-70
2021/10/05 07:02:43;;;;;;;25.27;14.35;;;11.50;99.90;;;;;;5032869;28;20056;-70
2021/10/05 07:05:10;;;;;;;24.70;14.45;;;11.50;99.90;;;;;;5032972;28;20063;-70
2021/10/05 07:07:44;;;;;;;23.85;14.75;;;11.50;99.90;;;;;;5049825;28;20041;-68
2021/10/05 07:10:12;;;;;;;22.85;14.15;;;11.50;99.90;;;;;;5050885;28;20036;-70
2021/10/05 07:12:38;;;;;;;20.58;12.73;;;11.60;99.90;;;;;;5050606;28;20121;-68
2021/10/05 07:15:05;;;;;;;19.92;12.23;;;11.70;99.90;;;;;;5049197;28;20044;-70
2021/10/05 07:17:31;;;;;;;17.50;11.45;;;11.70;99.90;;;;;;5046145;28;20057;-70
2021/10/05 07:19:57;;;;;;;15.82;10.45;;;11.80;99.90;;;;;;5055116;28;20078;-71
2021/10/05 07:22:23;;;;;;;12.82;9.43;;;11.80;99.90;;;;;;5051614;28;20032;-70
2021/10/05 07:24:49;;;;;;;15.20;9.85;;;11.80;99.90;;;;;;5032555;28;20400;-70
2021/10/05 07:27:15;;;;;;;13.80;9.45;;;12.00;99.90;;;;;;5050483;28;20028;-69
2021/10/05 07:29:40;;;;;;;11.02;8.48;;;12.00;99.90;;;;;;5042899;28;20125;-70
2021/10/05 07:32:06;;;;;;;14.32;9.48;;;12.20;99.90;;;;;;5036813;28;20029;-70
2021/10/05 07:34:32;;;;;;;11.75;8.60;;;12.30;99.90;;;;;;5039658;28;20053;-71
2021/10/05 07:36:58;;;;;;;10.63;8.82;;;12.40;99.90;;;;;;5038770;28;20068;-70
2021/10/05 07:39:24;;;;;;;10.93;8.38;;;12.40;99.90;;;;;;5041552;28;20100;-68
2021/10/05 07:41:50;;;;;;;13.50;9.27;;;12.50;99.90;;;;;;5050106;28;20029;-70
2021/10/05 07:44:17;;;;;;;11.30;9.23;;;12.60;99.90;;;;;;5053603;28;20040;-71
2021/10/05 07:46:43;;;;;;;12.23;8.32;;;12.70;99.90;;;;;;5054321;28;20052;-70
2021/10/05 07:49:08;;;;;;;9.20;7.82;;;12.70;99.90;;;;;;5043970;28;20067;-70
2021/10/05 07:51:34;;;;;;;10.48;8.48;;;12.70;99.90;;;;;;5053200;28;20036;-69
2021/10/05 07:54:00;;;;;;;11.13;8.38;;;12.70;99.90;;;;;;5054341;28;20411;-70
2021/10/05 07:56:27;;;;;;;10.15;7.93;;;12.70;99.90;;;;;;5048000;28;20041;-70
2021/10/05 07:58:52;;;;;;;9.55;8.25;;;12.60;99.90;;;;;;5042152;28;20036;-70
2021/10/05 08:01:18;;;;;;;10.25;8.52;;;12.60;99.90;;;;;;5054572;28;20033;-69
2021/10/05 08:03:43;;;;;;;10.93;8.93;;;12.70;99.90;;;;;;5033968;28;20413;-70
2021/10/05 08:06:09;;;;;;;14.18;9.25;;;12.70;99.90;;;;;;5037884;28;20371;-69
2021/10/05 08:08:35;;;;;;;13.10;9.35;;;12.70;99.90;;;;;;5048013;28;20382;-70
2021/10/05 08:11:01;;;;;;;13.52;9.55;;;12.60;99.90;;;;;;5018991;28;20108;-68
2021/10/05 08:13:27;;;;;;;16.02;10.05;;;12.60;99.90;;;;;;5054148;28;20121;-67
2021/10/05 08:15:53;;;;;;;13.10;9.63;;;12.60;99.90;;;;;;5053541;28;20120;-68
2021/10/05 08:18:18;;;;;;;12.27;9.20;;;12.60;99.90;;;;;;5042219;28;20112;-67
2021/10/05 08:20:46;;;;;;;12.75;9.07;;;12.70;99.90;;;;;;5072003;28;20032;-67
2021/10/05 08:23:12;;;;;;;10.00;8.23;;;12.70;99.90;;;;;;5041395;28;20027;-67
2021/10/05 08:25:38;;;;;;;12.88;8.90;;;12.70;99.90;;;;;;5034572;28;20034;-67
2021/10/05 08:28:04;;;;;;;10.00;7.57;;;12.80;99.90;;;;;;5033759;28;20083;-67
2021/10/05 08:30:32;;;;;;;14.93;10.73;;;12.80;99.90;;;;;;5034460;28;20026;-68
2021/10/05 08:32:58;;;;;;;11.07;8.98;;;12.80;99.90;;;;;;5033781;28;20025;-67
2021/10/05 08:35:25;;;;;;;14.93;9.85;;;12.80;99.90;;;;;;5040571;28;20048;-67
2021/10/05 08:37:52;;;;;;;12.65;9.85;;;12.90;99.90;;;;;;5053512;28;20033;-67
2021/10/05 08:40:19;;;;;;;12.07;9.60;;;13.00;99.90;;;;;;5054383;28;20071;-68
2021/10/05 08:42:45;;;;;;;11.15;9.02;;;13.10;99.90;;;;;;5053527;28;20454;-67
2021/10/05 08:45:12;;;;;;;10.88;8.23;;;13.20;99.90;;;;;;5053180;28;20024;-67
2021/10/05 08:47:38;;;;;;;9.57;7.60;;;13.40;99.90;;;;;;5053794;28;20029;-68
2021/10/05 08:50:06;;;;;;;6.63;5.95;;;13.60;99.90;;;;;;5053483;28;20029;-68
2021/10/05 08:52:33;;;;;;;7.90;6.68;;;13.80;99.90;;;;;;5036529;28;20039;-67
2021/10/05 08:54:59;;;;;;;10.32;6.28;;;13.90;99.90;;;;;;5052842;28;20047;-68
2021/10/05 08:57:25;;;;;;;7.38;5.63;;;14.00;99.90;;;;;;5053969;28;20029;-68
2021/10/05 08:59:50;;;;;;;7.18;5.32;;;14.20;99.90;;;;;;5052531;28;20032;-67
2021/10/05 09:02:18;;;;;;;5.35;4.82;;;14.20;99.90;;;;;;5042915;28;20091;-68
2021/10/05 09:04:46;;;;;;;7.85;5.15;;;14.30;99.90;;;;;;5032851;28;20383;-67
2021/10/05 09:07:29;;;;;;;5.10;4.60;;;14.30;99.90;;;;;;5038137;28;20116;-67
2021/10/05 09:10:02;;;;;;;3.65;3.35;;;14.20;99.90;;;;;;5035046;28;20067;-67
2021/10/05 09:12:32;;;;;;;7.03;3.25;;;14.20;99.90;;;;;;5033626;28;20029;-67
2021/10/05 09:14:59;;;;;;;3.53;3.17;;;14.10;99.90;;;;;;5032587;28;20079;-67
2021/10/05 09:17:27;;;;;;;4.25;3.38;;;14.10;99.90;;;;;;5034752;28;20041;-67
2021/10/05 09:19:55;;;;;;;3.53;3.22;;;14.10;99.90;;;;;;5036630;28;20029;-67
2021/10/05 09:22:25;;;;;;;5.18;4.00;;;14.10;99.90;;;;;;5033300;28;20041;-67
2021/10/05 09:24:53;;;;;;;3.72;3.10;;;14.00;99.90;;;;;;5039648;28;20033;-67
2021/10/05 09:27:19;;;;;;;5.38;3.63;;;14.10;99.90;;;;;;5043818;28;20044;-67
2021/10/05 09:29:49;;;;;;;3.65;3.22;;;14.20;99.90;;;;;;5049033;28;20083;-67
2021/10/05 09:32:18;;;;;;;4.25;3.85;;;14.30;99.90;;;;;;5048935;28;20032;-67
2021/10/05 09:34:51;;;;;;;4.18;3.78;;;14.40;99.90;;;;;;5032041;28;20037;-67
2021/10/05 09:37:21;;;;;;;5.03;4.50;;;14.40;99.90;;;;;;5033301;28;20045;-67
2021/10/05 09:39:50;;;;;;;4.30;3.90;;;14.50;99.90;;;;;;5032132;28;20033;-67
2021/10/05 09:42:22;;;;;;;5.40;4.10;;;14.50;99.90;;;;;;5043743;28;21063;-67
2021/10/05 09:44:52;;;;;;;5.70;5.10;;;14.50;99.90;;;;;;5053577;28;20032;-67
2021/10/05 09:47:17;;;;;;;5.57;4.28;;;14.60;99.90;;;;;;5035122;28;20108;-67
2021/10/05 09:49:44;;;;;;;6.40;3.85;;;14.60;99.90;;;;;;5045858;28;20112;-66
2021/10/05 09:52:12;;;;;;;5.03;4.32;;;14.60;99.90;;;;;;5050467;28;20086;-67
2021/10/05 09:54:38;;;;;;;5.20;4.10;;;14.70;99.90;;;;;;5052572;28;20029;-67
2021/10/05 09:57:04;;;;;;;6.68;4.70;;;14.70;99.90;;;;;;5052003;28;20626;-67
2021/10/05 09:59:29;;;;;;;5.18;4.13;;;14.80;99.90;;;;;;5053122;28;20029;-67
2021/10/05 10:01:57;;;;;;;7.20;4.90;;;14.90;99.90;;;;;;5051498;28;20462;-67
2021/10/05 10:04:27;;;;;;;7.50;4.70;;;15.10;99.90;;;;;;5032704;28;20041;-67
2021/10/05 10:06:53;;;;;;;5.03;4.10;;;15.20;99.90;;;;;;5030917;28;20057;-67
2021/10/05 10:09:19;;;;;;;5.68;3.67;;;15.30;99.90;;;;;;5052314;28;20033;-67
2021/10/05 10:11:45;;;;;;;4.35;3.47;;;15.40;99.90;;;;;;5051664;28;20366;-67
2021/10/05 10:14:11;;;;;;;5.63;2.97;;;15.50;99.90;;;;;;5052625;28;20378;-67
2021/10/05 10:16:37;;;;;;;5.97;3.45;;;15.60;99.90;;;;;;5052769;28;20041;-67
2021/10/05 10:19:03;;;;;;;3.40;3.10;;;15.60;99.90;;;;;;5056269;28;20671;-67
2021/10/05 10:21:33;;;;;;;3.60;3.25;;;15.50;99.90;;;;;;5050882;28;20438;-67
2021/10/05 10:24:14;;;;;;;3.10;2.90;;;15.60;99.90;;;;;;5053176;28;20035;-67
2021/10/05 10:26:47;;;;;;;3.58;2.75;;;15.60;99.90;;;;;;5048317;28;20433;-67
2021/10/05 10:29:14;;;;;;;3.10;2.80;;;15.70;99.90;;;;;;5052246;28;20103;-67
2021/10/05 10:31:41;;;;;;;4.22;2.80;;;15.80;99.90;;;;;;5051938;28;20096;-67
2021/10/05 10:34:19;;;;;;;2.95;2.72;;;16.00;99.90;;;;;;5050833;28;20025;-67
2021/10/05 10:36:45;;;;;;;2.95;2.65;;;16.10;99.90;;;;;;5050978;28;20045;-66
2021/10/05 10:39:16;;;;;;;4.07;2.60;;;16.20;99.90;;;;;;5051991;28;20035;-67
2021/10/05 10:42:06;;;;;;;3.67;2.38;;;16.20;99.90;;;;;;5051983;28;20033;-67
2021/10/05 10:44:50;;;;;;;2.60;2.40;;;16.30;99.90;;;;;;5051415;28;20080;-67
2021/10/05 10:47:18;;;;;;;3.03;2.75;;;16.20;99.90;;;;;;5052092;28;20033;-66
2021/10/05 10:49:59;;;;;;;3.55;2.60;;;16.10;99.90;;;;;;5051867;28;20379;-66
2021/10/05 10:52:27;;;;;;;2.40;2.20;;;15.90;99.90;;;;;;5050526;28;20112;-67
2021/10/05 10:54:58;;;;;;;3.35;2.03;;;15.90;99.90;;;;;;5051000;28;20039;-66
2021/10/05 10:57:35;;;;;;;;;;;15.90;99.90;;;;;;5047231;28;20033;-67
2021/10/05 11:00:12;;;;;;;3.17;2.35;;;15.90;99.90;;;;;;5031887;28;19911;-66
2021/10/05 11:02:49;;;;;;;4.60;2.45;;;15.80;99.90;;;;;;5032077;28;20029;-67
2021/10/05 11:05:18;;;;;;;2.47;2.28;;;15.80;99.90;;;;;;5031976;28;20070;-66
2021/10/05 11:07:44;;;;;;;2.15;1.95;;;15.80;99.90;;;;;;5040931;28;20463;-66
2021/10/05 11:10:10;;;;;;;4.93;2.08;;;15.90;99.90;;;;;;5051234;28;20116;-67
2021/10/05 11:12:39;;;;;;;2.08;1.88;;;15.90;99.90;;;;;;5051359;28;20581;-67
2021/10/05 11:15:08;;;;;;;1.90;1.80;;;15.90;99.90;;;;;;5034067;28;20068;-67
2021/10/05 11:17:34;;;;;;;2.42;1.60;;;15.80;99.90;;;;;;5031849;28;20117;-66
2021/10/05 11:20:06;;;;;;;2.40;1.50;;;15.70;99.90;;;;;;5056046;28;20372;-66
2021/10/05 11:22:32;;;;;;;1.52;1.42;;;15.70;99.90;;;;;;5049475;28;20053;-66
2021/10/05 11:24:58;;;;;;;2.78;1.38;;;15.60;99.90;;;;;;5030753;28;20057;-66
2021/10/05 11:27:25;;;;;;;1.20;1.20;;;15.70;99.90;;;;;;5041221;28;20029;-66
2021/10/05 11:29:57;;;;;;;2.63;1.25;;;15.80;99.90;;;;;;5030881;28;20498;-66
2021/10/05 11:32:23;;;;;;;1.15;1.10;;;15.90;99.90;;;;;;5031939;28;20022;-66
2021/10/05 11:34:50;;;;;;;1.67;1.17;;;16.00;99.90;;;;;;5030553;28;20041;-66
2021/10/05 11:37:18;;;;;;;0.88;0.80;;;16.10;99.90;;;;;;5039332;28;20095;-66
2021/10/05 11:39:46;;;;;;;0.88;0.88;;;16.20;99.90;;;;;;5049887;28;20116;-66
2021/10/05 11:42:23;;;;;;;3.00;1.30;;;16.50;99.90;;;;;;5050499;28;20474;-66
2021/10/05 11:44:53;;;;;;;0.90;0.90;;;16.90;99.90;;;;;;5051105;28;20040;-66
2021/10/05 11:47:24;;;;;;;1.50;0.90;;;17.20;99.90;;;;;;5045279;28;20029;-66
2021/10/05 11:49:54;;;;;;;1.17;1.08;;;17.30;99.90;;;;;;5031021;28;20096;-66
2021/10/05 11:52:25;;;;;;;2.40;1.00;;;17.40;99.90;;;;;;5039657;28;20029;-66
2021/10/05 11:54:54;;;;;;;1.00;1.00;;;17.40;99.90;;;;;;5050785;28;20037;-66
2021/10/05 11:57:24;;;;;;;0.93;0.93;;;17.40;99.90;;;;;;5031309;28;20041;-67
2021/10/05 11:59:50;;;;;;;1.20;0.95;;;17.30;99.90;;;;;;5030752;28;20022;-67
2021/10/05 12:02:18;;;;;;;3.70;0.98;;;17.20;99.90;;;;;;5035301;28;20489;-68
2021/10/05 12:05:03;;;;;;;0.95;0.70;;;17.10;99.90;;;;;;5031173;28;20026;-68
2021/10/05 12:07:29;;;;;;;0.93;0.82;;;17.10;99.90;;;;;;5041465;28;20056;-68
2021/10/05 12:10:02;;;;;;;2.70;0.90;;;17.00;99.90;;;;;;5050544;28;20470;-68
2021/10/05 12:12:32;;;;;;;0.80;0.70;;;17.00;99.90;;;;;;5043376;28;20033;-68
2021/10/05 12:15:04;;;;;;;1.05;0.50;;;17.00;99.90;;;;;;5030503;28;20465;-68
2021/10/05 12:17:32;;;;;;;0.70;0.70;;;17.10;99.90;;;;;;5021383;28;20115;-68
2021/10/05 12:20:02;;;;;;;1.50;0.80;;;17.20;99.90;;;;;;5054977;28;20036;-68
2021/10/05 12:22:31;;;;;;;0.90;0.70;;;17.40;99.90;;;;;;5039939;28;20029;-67
2021/10/05 12:25:04;;;;;;;4.00;0.90;;;17.50;99.90;;;;;;5049501;28;20033;-67
2021/10/05 12:27:33;;;;;;;0.70;0.70;;;17.60;99.90;;;;;;5037810;28;20025;-67
2021/10/05 12:29:58;;;;;;;0.52;0.47;;;17.60;99.90;;;;;;5032856;28;20030;-68
2021/10/05 12:32:34;;;;;;;1.55;0.50;;;17.70;99.90;;;;;;5044127;28;20037;-68
2021/10/05 12:35:00;;;;;;;1.23;0.60;;;17.80;99.90;;;;;;5052054;28;20040;-68